Time;durP1;ratioP1;P1;durP2;ratioP2;P2;SDS_P1;SDS_P2;PMS_P1;PMS_P2;Temp;Humidity;BMP_temperature;BMP_pressure;BME280_temperature;BME280_humidity;BME280_pressure;Samples;Min_cycle;Max_cycle;Signal;HPM_P1;HPM_P2
2022/12/15 00:40:03;;;;;;;;;;;17.40;29.10;;;;;;5031254;28;19937;-74
2022/12/15 00:42:31;;;;;;;;;;;17.40;29.00;;;;;;5031087;28;20004;-74
2022/12/15 00:44:56;;;;;;;;;;;17.50;29.60;;;;;;5031691;28;20007;-77
2022/12/15 00:47:23;;;;;;;;;;;17.50;28.90;;;;;;5031204;28;19968;-77
2022/12/15 01:20:17;;;;;;;;;;;17.90;28.30;;;;;;5096058;28;20133;-78
2022/12/15 01:25:26;;;;;;;;;;;17.90;28.20;;;;;;5110303;27;19912;-76
2022/12/15 01:27:52;;;;;;;;;;;18.00;28.20;;;;;;5110212;28;20429;-75
2022/12/15 01:30:19;;;;;;;;;;;18.00;28.10;;;;;;5143216;27;19970;-77
2022/12/15 01:32:44;;;;;;;;;;;18.00;28.10;;;;;;5109207;28;20011;-74
2022/12/15 01:35:10;;;;;;;;;;;18.00;28.10;;;;;;5108798;28;19951;-74
2022/12/15 01:37:36;;;;;;;;;;;18.00;28.10;;;;;;5143460;27;19919;-74
2022/12/15 01:42:48;;;;;;;;;;;18.00;28.10;;;;;;5108644;28;20064;-75
2022/12/15 01:48:11;;;;;;;;;;;18.00;28.00;;;;;;5110251;27;19953;-77
2022/12/15 01:50:43;;;;;;;;;;;18.00;28.00;;;;;;5109159;28;19924;-76
2022/12/15 01:53:09;;;;;;;;;;;18.00;28.00;;;;;;5108922;28;19946;-74
2022/12/15 01:55:35;;;;;;;;;;;18.00;28.00;;;;;;5108826;28;19920;-74
2022/12/15 01:58:02;;;;;;;;;;;18.00;28.00;;;;;;5109099;28;20330;-77
2022/12/15 02:00:29;;;;;;;;;;;18.00;28.00;;;;;;5108994;28;19950;-75
2022/12/15 02:02:55;;;;;;;;;;;18.10;28.00;;;;;;5109010;28;19928;-77
2022/12/15 02:05:21;;;;;;;;;;;18.00;28.00;;;;;;5108916;28;19920;-76
2022/12/15 02:07:47;;;;;;;;;;;18.00;28.00;;;;;;5108573;28;20553;-75
2022/12/15 02:10:12;;;;;;;;;;;18.00;28.00;;;;;;5108478;28;19926;-77
2022/12/15 02:13:00;;;;;;;;;;;18.00;28.00;;;;;;5109803;28;19926;-74
2022/12/15 02:15:30;;;;;;;;;;;18.00;27.90;;;;;;5108547;28;19984;-79
2022/12/15 02:18:01;;;;;;;;;;;18.00;27.90;;;;;;5108481;28;19945;-74
2022/12/15 02:26:13;;;;;;;;;;;18.00;27.80;;;;;;5089781;28;19935;-74
2022/12/15 02:31:52;;;;;;;;;;;18.10;27.80;;;;;;5127583;27;1862936;-75
2022/12/15 02:34:13;;;;;;;;;;;18.10;27.80;;;;;;5174200;27;19926;-74
2022/12/15 02:36:42;;;;;;;;;;;18.10;27.80;;;;;;5174430;27;20001;-74
2022/12/15 02:39:10;;;;;;;;;;;18.10;27.80;;;;;;5174988;27;20270;-77
2022/12/15 02:44:18;;;;;;;;;;;18.20;27.70;;;;;;5110281;27;19912;-77
2022/12/15 02:47:04;;;;;;;;;;;18.20;27.70;;;;;;5143375;27;19920;-78
2022/12/15 02:49:49;;;;;;;;;;;18.20;27.70;;;;;;5108679;28;19934;-77
2022/12/15 02:52:34;;;;;;;;;;;18.20;27.70;;;;;;5108586;28;19928;-74
2022/12/15 02:57:46;;;;;;;;;;;18.20;27.60;;;;;;5109892;27;19912;-74
2022/12/15 03:00:13;;;;;;;;;;;18.20;27.60;;;;;;5108738;28;19920;-79
2022/12/15 03:02:41;;;;;;;;;;;18.20;27.60;;;;;;5109204;28;19920;-74
2022/12/15 03:05:07;;;;;;;;;;;18.20;27.60;;;;;;5108900;28;19920;-77
2022/12/15 03:07:33;;;;;;;;;;;18.20;27.60;;;;;;5143414;27;20047;-78
2022/12/15 03:09:59;;;;;;;;;;;18.30;27.60;;;;;;5108742;28;19920;-74
2022/12/15 03:12:25;;;;;;;;;;;18.20;27.60;;;;;;5108676;28;19920;-78
2022/12/15 03:14:50;;;;;;;;;;;18.20;27.60;;;;;;5109016;28;20019;-74
2022/12/15 03:17:16;;;;;;;;;;;18.20;27.60;;;;;;5108555;28;20034;-79
2022/12/15 03:19:41;;;;;;;;;;;18.20;27.60;;;;;;5108561;28;19920;-73
2022/12/15 03:22:07;;;;;;;;;;;18.20;27.60;;;;;;5108508;28;19927;-78
2022/12/15 03:24:33;;;;;;;;;;;18.20;27.60;;;;;;5142788;27;19972;-77
2022/12/15 03:26:58;;;;;;;;;;;18.20;27.60;;;;;;5142991;27;19919;-74
2022/12/15 03:29:24;;;;;;;;;;;18.20;27.50;;;;;;5143111;27;20386;-77
2022/12/15 03:31:49;;;;;;;;;;;18.20;27.50;;;;;;5108621;28;20015;-74
2022/12/15 03:34:15;;;;;;;;;;;18.20;27.50;;;;;;5143022;27;20021;-74
2022/12/15 03:36:41;;;;;;;;;;;18.20;27.50;;;;;;5108679;28;20265;-74
2022/12/15 03:39:06;;;;;;;;;;;18.20;27.50;;;;;;5142277;27;19927;-78
2022/12/15 03:41:32;;;;;;;;;;;18.20;27.50;;;;;;5108135;28;19990;-79
2022/12/15 03:43:57;;;;;;;;;;;18.20;27.50;;;;;;5142427;27;20006;-75
2022/12/15 03:46:23;;;;;;;;;;;18.20;27.50;;;;;;5108625;28;20022;-78
2022/12/15 03:48:49;;;;;;;;;;;18.30;27.50;;;;;;5108192;28;19920;-78
2022/12/15 03:51:15;;;;;;;;;;;18.20;27.50;;;;;;5109458;28;20299;-78
2022/12/15 03:53:40;;;;;;;;;;;18.20;27.50;;;;;;5107922;28;19934;-75
2022/12/15 03:56:06;;;;;;;;;;;18.20;27.50;;;;;;5107320;28;19928;-74
2022/12/15 03:58:31;;;;;;;;;;;18.20;27.40;;;;;;5089107;28;19920;-74
2022/12/15 04:00:57;;;;;;;;;;;18.30;27.50;;;;;;5088661;28;19920;-75
2022/12/15 04:03:22;;;;;;;;;;;18.20;27.40;;;;;;5087643;28;20388;-78
2022/12/15 04:05:48;;;;;;;;;;;18.20;27.40;;;;;;5090994;28;20010;-75
2022/12/15 04:08:13;;;;;;;;;;;18.20;27.40;;;;;;5098112;28;19943;-74
2022/12/15 04:10:39;;;;;;;;;;;18.20;27.40;;;;;;5094257;28;19920;-74
2022/12/15 04:13:06;;;;;;;;;;;18.20;27.40;;;;;;5128368;27;20016;-78
2022/12/15 04:15:32;;;;;;;;;;;18.30;27.40;;;;;;5093784;28;19928;-79
2022/12/15 04:17:59;;;;;;;;;;;18.30;27.40;;;;;;5094201;28;19920;-74
2022/12/15 04:20:25;;;;;;;;;;;18.30;27.40;;;;;;5093876;28;19920;-74
2022/12/15 04:22:50;;;;;;;;;;;18.30;27.30;;;;;;5093846;28;19926;-75
2022/12/15 05:31:51;;;;;;;;;;;18.70;26.70;;;;;;5085524;28;19978;-75
2022/12/15 05:34:18;;;;;;;;;;;18.80;26.60;;;;;;5052137;28;19920;-74
2022/12/15 05:36:44;;;;;;;;;;;18.80;26.60;;;;;;5053293;28;19925;-75
2022/12/15 05:39:09;;;;;;;;;;;18.90;26.60;;;;;;5080899;28;20376;-74
2022/12/15 05:41:35;;;;;;;;;;;18.90;26.60;;;;;;5092408;28;20447;-75
2022/12/15 05:44:00;;;;;;;;;;;18.90;26.50;;;;;;5126804;27;20375;-77
2022/12/15 05:46:26;;;;;;;;;;;18.90;26.50;;;;;;5126579;27;20392;-79
2022/12/15 05:48:51;;;;;;;;;;;18.90;26.50;;;;;;5092342;28;19927;-74
2022/12/15 05:51:17;;;;;;;;;;;18.90;26.50;;;;;;5092428;28;20033;-74
2022/12/15 05:53:42;;;;;;;;;;;18.90;26.50;;;;;;5092280;28;19981;-77
2022/12/15 05:56:09;;;;;;;;;;;18.90;26.50;;;;;;5091706;28;20574;-74
2022/12/15 05:58:35;;;;;;;;;;;18.80;26.50;;;;;;5105871;28;19932;-74
2022/12/15 06:01:03;;;;;;;;;;;18.90;26.60;;;;;;5105548;28;20288;-74
2022/12/15 06:03:28;;;;;;;;;;;18.80;26.60;;;;;;5073277;28;19921;-75
2022/12/15 06:05:54;;;;;;;;;;;18.80;26.60;;;;;;5071755;28;19928;-75
2022/12/15 06:08:19;;;;;;;;;;;18.80;26.60;;;;;;5071819;28;19927;-78
2022/12/15 06:10:50;;;;;;;;;;;18.70;26.50;;;;;;5071588;28;19927;-77
2022/12/15 06:13:16;;;;;;;;;;;18.70;26.60;;;;;;5071809;28;19921;-74
2022/12/15 06:15:41;;;;;;;;;;;18.80;26.70;;;;;;5072914;28;20348;-74
2022/12/15 06:18:07;;;;;;;;;;;18.70;26.60;;;;;;5105313;28;19935;-74
2022/12/15 06:20:32;;;;;;;;;;;18.70;26.60;;;;;;5071443;28;19932;-78
2022/12/15 06:22:58;;;;;;;;;;;18.70;26.60;;;;;;5073090;28;19973;-74
2022/12/15 06:25:24;;;;;;;;;;;18.60;26.60;;;;;;5071514;28;20409;-74
2022/12/15 06:27:49;;;;;;;;;;;18.60;26.60;;;;;;5071279;28;19920;-77
2022/12/15 06:30:15;;;;;;;;;;;18.70;26.60;;;;;;5105221;28;19927;-77
2022/12/15 06:32:40;;;;;;;;;;;18.70;26.60;;;;;;5104938;28;20411;-77
2022/12/15 06:35:06;;;;;;;;;;;18.70;26.60;;;;;;5071449;28;19920;-77
2022/12/15 06:37:31;;;;;;;;;;;18.70;26.70;;;;;;5072381;28;20299;-74
2022/12/15 06:39:57;;;;;;;;;;;18.70;26.60;;;;;;5104818;28;19920;-74
2022/12/15 06:42:23;;;;;;;;;;;18.70;26.60;;;;;;5104900;28;19920;-78
2022/12/15 06:44:48;;;;;;;;;;;18.70;26.60;;;;;;5071048;28;19920;-75
2022/12/15 06:47:14;;;;;;;;;;;18.60;26.60;;;;;;5071303;28;19921;-78
2022/12/15 06:49:39;;;;;;;;;;;18.60;26.60;;;;;;5071276;28;20303;-77
2022/12/15 06:52:05;;;;;;;;;;;18.80;26.70;;;;;;5104852;28;19928;-77
2022/12/15 06:54:30;;;;;;;;;;;18.70;26.60;;;;;;5112417;28;19920;-74
2022/12/15 06:56:56;;;;;;;;;;;18.70;26.60;;;;;;5102797;28;19932;-74
2022/12/15 06:59:22;;;;;;;;;;;18.70;26.60;;;;;;5067873;28;20018;-72
2022/12/15 07:01:47;;;;;;;;;;;18.70;26.60;;;;;;5071009;28;20299;-68
2022/12/15 07:04:13;;;;;;;;;;;18.70;26.90;;;;;;5065913;28;20435;-72
2022/12/15 07:06:39;;;;;;;;;;;18.70;27.10;;;;;;5064711;28;19932;-68
2022/12/15 07:09:06;;;;;;;;;;;18.70;27.20;;;;;;5065755;28;19924;-73
2022/12/15 07:11:32;;;;;;;;;;;18.80;27.30;;;;;;5068527;28;20457;-68
2022/12/15 07:13:57;;;;;;;;;;;18.80;27.30;;;;;;5099082;28;19935;-73
2022/12/15 07:16:23;;;;;;;;;;;18.80;27.40;;;;;;5064784;28;20299;-75
2022/12/15 07:18:49;;;;;;;;;;;18.80;27.40;;;;;;5063512;28;19967;-75
2022/12/15 07:21:14;;;;;;;;;;;19.20;27.50;;;;;;5059845;28;19931;-72
2022/12/15 07:23:40;;;;;;;;;;;19.40;27.30;;;;;;5086627;28;19970;-75
2022/12/15 07:26:07;;;;;;;;;;;19.80;27.30;;;;;;5047194;28;19968;-74
2022/12/15 07:28:34;;;;;;;;;;;19.40;26.80;;;;;;5048297;28;19979;-75
2022/12/15 07:31:02;;;;;;;;;;;20.70;26.70;;;;;;5067705;28;20381;-75
2022/12/15 07:33:28;;;;;;;;;;;21.10;26.30;;;;;;5043297;28;19935;-74
2022/12/15 07:35:53;;;;;;;;;;;21.60;25.90;;;;;;5047932;28;19929;-74
2022/12/15 07:38:19;;;;;;;;;;;21.90;25.60;;;;;;5052924;28;19920;-72
2022/12/15 07:40:44;;;;;;;;;;;22.40;25.40;;;;;;5083180;28;19966;-72
2022/12/15 07:43:10;;;;;;;;;;;22.60;25.50;;;;;;5056532;28;19929;-71
2022/12/15 07:45:35;;;;;;;;;;;22.60;25.90;;;;;;5054360;28;20487;-71
2022/12/15 07:48:01;;;;;;;;;;;22.40;26.10;;;;;;5056565;28;20047;-64
2022/12/15 07:50:27;;;;;;;;;;;22.20;26.20;;;;;;5059522;28;19924;-71
2022/12/15 07:52:53;;;;;;;;;;;22.10;26.40;;;;;;5059730;28;19925;-71
2022/12/15 07:55:19;;;;;;;;;;;22.00;26.60;;;;;;5057063;28;19921;-64
2022/12/15 07:57:46;;;;;;;;;;;21.90;26.90;;;;;;5054958;28;20403;-71
2022/12/15 08:00:13;;;;;;;;;;;21.80;27.80;;;;;;5057240;28;20266;-68
2022/12/15 08:02:39;;;;;;;;;;;21.80;27.40;;;;;;5087416;28;19928;-71
2022/12/15 08:05:05;;;;;;;;;;;21.60;27.50;;;;;;5057805;28;20003;-68
2022/12/15 08:07:31;;;;;;;;;;;21.70;27.70;;;;;;5054583;28;20019;-72
2022/12/15 08:09:56;;;;;;;;;;;21.70;27.80;;;;;;5057492;28;19929;-69
2022/12/15 08:12:22;;;;;;;;;;;22.40;27.90;;;;;;5088478;28;19990;-67
2022/12/15 08:14:47;;;;;;;;;;;22.40;27.50;;;;;;5054873;28;19929;-69
2022/12/15 08:17:13;;;;;;;;;;;22.90;27.20;;;;;;5059707;28;20358;-76
2022/12/15 08:19:38;;;;;;;;;;;23.30;26.90;;;;;;5054152;28;20296;-78
2022/12/15 08:22:04;;;;;;;;;;;23.60;26.60;;;;;;5059854;28;19921;-75
2022/12/15 08:24:29;;;;;;;;;;;23.90;26.30;;;;;;5052051;28;19920;-75
2022/12/15 08:26:55;;;;;;;;;;;24.00;26.20;;;;;;5055412;28;20524;-68
2022/12/15 08:29:20;;;;;;;;;;;24.20;26.00;;;;;;5052766;28;19925;-77
2022/12/15 08:31:46;;;;;;;;;;;24.50;25.90;;;;;;5054098;28;19982;-72
2022/12/15 08:34:11;;;;;;;;;;;24.60;25.80;;;;;;5052992;28;19929;-74
2022/12/15 08:36:37;;;;;;;;;;;24.70;25.70;;;;;;5056371;28;19928;-74
2022/12/15 08:39:02;;;;;;;;;;;24.90;25.70;;;;;;5088668;28;20409;-67
2022/12/15 08:41:30;;;;;;;;;;;25.10;25.50;;;;;;5052456;28;19940;-74
2022/12/15 08:43:56;;;;;;;;;;;25.20;25.50;;;;;;5056513;28;20003;-72
2022/12/15 08:46:24;;;;;;;;;;;25.40;25.50;;;;;;5055046;28;20323;-70
2022/12/15 08:48:51;;;;;;;;;;;25.50;25.50;;;;;;5055690;28;19920;-72
2022/12/15 08:51:17;;;;;;;;;;;25.50;25.40;;;;;;5055037;28;20007;-72
2022/12/15 08:53:43;;;;;;;;;;;25.60;25.40;;;;;;5058335;28;20011;-70
2022/12/15 08:56:11;;;;;;;;;;;25.70;25.40;;;;;;5059374;28;19925;-76
2022/12/15 08:58:36;;;;;;;;;;;25.80;25.30;;;;;;5057306;28;19924;-71
2022/12/15 09:01:04;;;;;;;;;;;25.90;25.40;;;;;;5063422;28;19958;-71
2022/12/15 09:03:29;;;;;;;;;;;25.90;25.40;;;;;;5073235;28;19927;-71
2022/12/15 09:05:56;;;;;;;;;;;25.90;25.40;;;;;;5091766;28;19940;-74
2022/12/15 09:08:22;;;;;;;;;;;25.90;25.50;;;;;;5057179;28;19924;-73
2022/12/15 09:10:48;;;;;;;;;;;25.90;25.40;;;;;;5074889;28;19930;-75
2022/12/15 09:13:13;;;;;;;;;;;25.90;25.50;;;;;;5075362;28;19920;-70
2022/12/15 09:15:42;;;;;;;;;;;26.10;25.50;;;;;;5088359;28;19931;-70
2022/12/15 09:18:07;;;;;;;;;;;26.10;25.50;;;;;;5063805;28;20018;-73
2022/12/15 09:20:33;;;;;;;;;;;26.10;25.50;;;;;;5075435;28;20022;-68
2022/12/15 09:22:59;;;;;;;;;;;26.10;25.50;;;;;;5055088;28;20066;-74
2022/12/15 09:25:24;;;;;;;;;;;26.10;25.60;;;;;;5074917;28;19956;-71
2022/12/15 09:27:50;;;;;;;;;;;26.20;25.70;;;;;;5073340;28;20010;-70
2022/12/15 09:30:15;;;;;;;;;;;26.20;25.60;;;;;;5076992;28;19924;-72
2022/12/15 09:32:41;;;;;;;;;;;26.20;25.60;;;;;;5057984;28;20338;-69
2022/12/15 09:35:06;;;;;;;;;;;26.20;25.60;;;;;;5055293;28;20299;-74
2022/12/15 09:37:32;;;;;;;;;;;26.20;25.80;;;;;;5064940;28;19932;-74
2022/12/15 09:39:57;;;;;;;;;;;26.10;25.90;;;;;;5054460;28;20399;-76
2022/12/15 09:42:24;;;;;;;;;;;26.10;25.90;;;;;;5087870;28;19924;-75
2022/12/15 09:44:55;;;;;;;;;;;26.00;25.90;;;;;;5057938;28;20029;-74
2022/12/15 09:47:41;;;;;;;;;;;26.00;26.50;;;;;;5088964;28;19931;-73
2022/12/15 09:50:09;;;;;;;;;;;26.10;26.40;;;;;;5053502;28;19931;-72
2022/12/15 09:52:51;;;;;;;;;;;25.80;25.70;;;;;;5058399;28;19924;-73
2022/12/15 09:58:20;;;;;;;;;;;24.80;26.10;;;;;;5076847;27;20692;-74
2022/12/15 10:00:51;;;;;;;;;;;24.30;26.20;;;;;;5073125;28;20007;-65
2022/12/15 10:08:47;;;;;;;;;;;24.10;26.90;;;;;;5054549;28;19921;-76
2022/12/15 10:11:18;;;;;;;;;;;24.10;27.00;;;;;;5049092;28;20006;-64
2022/12/15 10:13:49;;;;;;;;;;;24.20;27.10;;;;;;5054718;28;19925;-63
2022/12/15 10:16:21;;;;;;;;;;;24.00;27.10;;;;;;5043534;28;20661;-73
2022/12/15 10:18:56;;;;;;;;;;;23.70;27.40;;;;;;5060885;28;20414;-76
2022/12/15 10:21:25;;;;;;;;;;;23.30;27.80;;;;;;5046616;28;21103;-76
2022/12/15 10:23:52;;;;;;;;;;;23.20;28.10;;;;;;5045177;28;19931;-78
2022/12/15 10:26:19;;;;;;;;;;;23.10;28.20;;;;;;5047835;28;20490;-79
2022/12/15 10:31:50;;;;;;;;;;;22.70;28.60;;;;;;5065385;28;19931;-83
2022/12/15 10:34:22;;;;;;;;;;;22.30;29.00;;;;;;5054417;28;20304;-79
2022/12/15 10:36:52;;;;;;;;;;;22.80;29.90;;;;;;5044510;28;20013;-73
2022/12/15 10:39:22;;;;;;;;;;;21.50;30.10;;;;;;5042948;28;19955;-72
2022/12/15 10:42:07;;;;;;;;;;;21.30;30.60;;;;;;5057338;28;20308;-66
2022/12/15 10:44:36;;;;;;;;;;;21.10;31.20;;;;;;5055753;28;19924;-73
2022/12/15 10:47:07;;;;;;;;;;;21.10;31.40;;;;;;5058638;28;19931;-80
2022/12/15 10:49:33;;;;;;;;;;;21.10;31.50;;;;;;5057140;28;20027;-75
2022/12/15 10:51:59;;;;;;;;;;;21.30;31.50;;;;;;5056052;28;20023;-71
2022/12/15 10:54:29;;;;;;;;;;;21.40;31.30;;;;;;5055082;28;20436;-72
2022/12/15 10:56:56;;;;;;;;;;;21.60;31.00;;;;;;5059348;28;19924;-71
2022/12/15 11:07:37;;;;;;;;;;;22.60;30.10;;;;;;5090897;27;1860092;-68
2022/12/15 11:10:22;;;;;;;;;;;22.80;30.10;;;;;;5121686;27;19933;-69
2022/12/15 11:15:38;;;;;;;;;;;23.00;30.00;;;;;;5089540;27;19920;-73
2022/12/15 11:20:49;;;;;;;;;;;22.90;30.30;;;;;;5103816;27;1858818;-72
2022/12/15 11:23:27;;;;;;;;;;;22.60;30.50;;;;;;5135639;27;19920;-73
2022/12/15 11:25:56;;;;;;;;;;;22.30;30.70;;;;;;5141323;27;19954;-68
2022/12/15 11:28:24;;;;;;;;;;;22.10;31.20;;;;;;5145940;27;19919;-68
2022/12/15 11:30:54;;;;;;;;;;;21.90;31.40;;;;;;5137936;27;19937;-69
2022/12/15 11:33:20;;;;;;;;;;;21.80;31.50;;;;;;5151757;27;19926;-72
2022/12/15 11:41:30;;;;;;;;;;;22.30;32.00;;;;;;5095318;27;20012;-66
2022/12/15 11:44:08;;;;;;;;;;;21.80;31.80;;;;;;5072184;28;19935;-69
2022/12/15 11:46:39;;;;;;;;;;;21.70;31.60;;;;;;5089003;28;20376;-67
2022/12/15 11:54:28;;;;;;;;;;;21.30;31.70;;;;;;5078124;27;19947;-69
2022/12/15 11:56:57;;;;;;;;;;;21.50;31.50;;;;;;5107965;28;19929;-70
2022/12/15 11:59:31;;;;;;;;;;;21.60;31.30;;;;;;5082855;28;19924;-69
2022/12/15 12:07:30;;;;;;;;;;;22.40;30.60;;;;;;5081748;27;19922;-71
2022/12/15 12:10:02;;;;;;;;;;;22.50;30.30;;;;;;5101806;27;19921;-72
2022/12/15 12:12:31;;;;;;;;;;;22.70;30.00;;;;;;5072499;28;19943;-73
2022/12/15 12:15:12;;;;;;;;;;;22.70;30.00;;;;;;5072614;28;19924;-72
2022/12/15 12:20:21;;;;;;;;;;;22.90;30.20;;;;;;5073917;27;19953;-72
2022/12/15 12:22:54;;;;;;;;;;;23.20;30.00;;;;;;5077480;28;19935;-68
2022/12/15 12:25:20;;;;;;;;;;;23.60;29.80;;;;;;5070341;28;19973;-71
2022/12/15 12:27:51;;;;;;;;;;;23.80;29.50;;;;;;5104427;27;20021;-72
2022/12/15 12:30:19;;;;;;;;;;;24.00;29.50;;;;;;5078872;28;19920;-74
2022/12/15 12:38:09;;;;;;;;;;;25.10;28.60;;;;;;5069332;28;19930;-72
2022/12/15 12:40:55;;;;;;;;;;;25.40;28.50;;;;;;5056509;28;19921;-71
2022/12/15 12:46:19;;;;;;;;;;;25.80;28.50;;;;;;5092057;27;1859236;-70
2022/12/15 12:51:27;;;;;;;;;;;25.80;28.40;;;;;;5063049;28;19942;-70
2022/12/15 12:53:53;;;;;;;;;;;25.70;28.50;;;;;;5047409;28;20439;-67
2022/12/15 12:56:27;;;;;;;;;;;26.90;29.40;;;;;;5053076;28;19921;-68
2022/12/15 12:58:53;;;;;;;;;;;25.20;28.70;;;;;;5055048;28;19935;-71
2022/12/15 13:01:25;;;;;;;;;;;24.70;28.80;;;;;;5073526;28;19924;-71
2022/12/15 13:04:10;;;;;;;;;;;24.40;29.20;;;;;;5071468;28;20364;-70
2022/12/15 13:11:56;;;;;;;;;;;23.40;30.00;;;;;;5104516;27;1861422;-74
2022/12/15 13:17:05;;;;;;;;;;;22.90;30.80;;;;;;5089263;27;1865594;-71
2022/12/15 13:19:50;;;;;;;;;;;22.80;31.20;;;;;;5139335;27;19930;-78
2022/12/15 13:22:24;;;;;;;;;;;23.00;31.20;;;;;;5134063;27;19933;-75
2022/12/15 13:24:50;;;;;;;;;;;23.30;30.90;;;;;;5133847;27;20416;-70
2022/12/15 13:27:16;;;;;;;;;;;23.70;30.60;;;;;;5133229;27;19923;-72
2022/12/15 13:32:38;;;;;;;;;;;24.40;30.10;;;;;;5058136;28;19965;-69
2022/12/15 13:37:51;;;;;;;;;;;25.20;29.40;;;;;;5086236;27;19921;-70
2022/12/15 13:40:25;;;;;;;;;;;25.50;29.20;;;;;;5084896;28;20376;-70
2022/12/15 13:43:08;;;;;;;;;;;25.70;29.10;;;;;;5075779;28;19920;-76
2022/12/15 13:48:34;;;;;;;;;;;25.50;29.30;;;;;;5084138;27;20356;-70
2022/12/15 13:53:43;;;;;;;;;;;25.30;29.50;;;;;;5085960;27;20308;-70
2022/12/15 13:58:52;;;;;;;;;;;25.40;29.60;;;;;;5059853;27;2088539;-70
2022/12/15 14:01:20;;;;;;;;;;;25.50;29.40;;;;;;5138353;27;19930;-69
2022/12/15 14:04:05;;;;;;;;;;;25.50;29.40;;;;;;5122757;27;19923;-67
2022/12/15 14:06:34;;;;;;;;;;;25.50;29.50;;;;;;5119424;27;19919;-71
2022/12/15 14:09:00;;;;;;;;;;;25.20;29.60;;;;;;5139018;27;19992;-73
2022/12/15 14:11:32;;;;;;;;;;;24.90;30.00;;;;;;5142056;27;20327;-76
2022/12/15 14:13:59;;;;;;;;;;;24.80;30.10;;;;;;5140611;27;19919;-72
2022/12/15 14:16:25;;;;;;;;;;;24.70;30.20;;;;;;5140450;27;20006;-72
2022/12/15 14:19:11;;;;;;;;;;;24.70;30.10;;;;;;5146774;27;20422;-68
2022/12/15 14:21:36;;;;;;;;;;;24.70;30.00;;;;;;5163954;27;19919;-67
2022/12/15 14:24:12;;;;;;;;;;;24.60;30.00;;;;;;5164775;27;19931;-71
2022/12/15 14:26:40;;;;;;;;;;;24.60;30.10;;;;;;5164069;27;20431;-72
2022/12/15 14:29:05;;;;;;;;;;;24.60;30.00;;;;;;5143030;27;19958;-67
2022/12/15 14:31:31;;;;;;;;;;;24.50;29.70;;;;;;5132464;27;19974;-72
2022/12/15 14:36:39;;;;;;;;;;;24.10;29.80;;;;;;5083593;28;20291;-69
2022/12/15 14:39:10;;;;;;;;;;;24.10;29.90;;;;;;5071622;28;19925;-70
2022/12/15 14:41:38;;;;;;;;;;;24.10;29.80;;;;;;5078089;28;19955;-71
2022/12/15 14:44:05;;;;;;;;;;;24.10;29.80;;;;;;5062403;28;19930;-73
2022/12/15 14:46:31;;;;;;;;;;;24.30;29.70;;;;;;5067281;28;20015;-71
2022/12/15 14:49:01;;;;;;;;;;;24.60;29.30;;;;;;5062442;28;19943;-73
2022/12/15 14:51:27;;;;;;;;;;;24.90;29.00;;;;;;5063043;28;19967;-71
2022/12/15 14:53:53;;;;;;;;;;;25.20;28.70;;;;;;5062868;28;19920;-72
2022/12/15 15:01:49;;;;;;;;;;;26.70;28.80;;;;;;5080453;28;19917;-70
2022/12/15 15:04:31;;;;;;;;;;;25.40;28.00;;;;;;5074629;28;19991;-69
2022/12/15 15:06:59;;;;;;;;;;;24.90;28.20;;;;;;5047645;28;19955;-69
2022/12/15 15:09:30;;;;;;;;;;;24.40;28.80;;;;;;5062053;28;19932;-69
2022/12/15 15:11:59;;;;;;;;;;;24.10;29.20;;;;;;5065257;28;19924;-63
2022/12/15 15:14:27;;;;;;;;;;;23.90;29.30;;;;;;5065445;28;20312;-63
2022/12/15 15:19:39;;;;;;;;;;;23.90;29.40;;;;;;5108795;27;1865207;-68
2022/12/15 15:22:05;;;;;;;;;;;24.00;29.30;;;;;;5152635;27;20414;-69
2022/12/15 15:24:34;;;;;;;;;;;24.30;29.10;;;;;;5149844;27;20021;-69
2022/12/15 15:27:20;;;;;;;;;;;24.40;28.90;;;;;;5149753;27;20017;-69
2022/12/15 15:29:45;;;;;;;;;;;24.40;28.90;;;;;;5147172;27;20432;-70
2022/12/15 15:34:51;;;;;;;;;;;24.50;28.60;;;;;;5085230;28;19912;-71
2022/12/15 15:39:57;;;;;;;;;;;24.80;28.50;;;;;;5083343;28;19921;-74
2022/12/15 15:42:22;;;;;;;;;;;24.80;28.40;;;;;;5100401;28;19939;-77
2022/12/15 15:44:48;;;;;;;;;;;24.90;28.60;;;;;;5083407;28;19960;-73
2022/12/15 15:47:20;;;;;;;;;;;24.90;28.70;;;;;;5081518;28;19972;-74
2022/12/15 15:49:46;;;;;;;;;;;24.90;28.70;;;;;;5095516;28;19925;-76
2022/12/15 15:52:12;;;;;;;;;;;24.90;28.70;;;;;;5083437;28;19920;-67
2022/12/15 15:54:37;;;;;;;;;;;24.80;28.80;;;;;;5081798;28;19924;-75
2022/12/15 15:57:03;;;;;;;;;;;24.70;28.90;;;;;;5084223;28;19935;-73
2022/12/15 15:59:28;;;;;;;;;;;24.60;29.00;;;;;;5084498;28;20415;-74
2022/12/15 16:01:54;;;;;;;;;;;24.40;29.20;;;;;;5085303;28;19920;-67
2022/12/15 16:04:20;;;;;;;;;;;24.20;29.40;;;;;;5085362;28;20372;-66
2022/12/15 16:06:46;;;;;;;;;;;24.00;29.60;;;;;;5084337;28;19924;-72
2022/12/15 16:09:12;;;;;;;;;;;23.80;29.80;;;;;;5086654;28;19978;-67
2022/12/15 16:11:38;;;;;;;;;;;23.60;29.90;;;;;;5084551;28;19920;-68
2022/12/15 16:14:05;;;;;;;;;;;23.40;30.10;;;;;;5088116;28;20430;-70
2022/12/15 16:16:31;;;;;;;;;;;23.20;30.40;;;;;;5087291;28;19920;-67
2022/12/15 16:18:57;;;;;;;;;;;23.10;30.70;;;;;;5087160;28;19977;-73
2022/12/15 16:21:24;;;;;;;;;;;22.90;31.00;;;;;;5088613;28;19924;-67
2022/12/15 16:23:50;;;;;;;;;;;22.70;31.30;;;;;;5087436;28;19921;-66
2022/12/15 16:26:20;;;;;;;;;;;22.50;31.50;;;;;;5086116;28;19927;-68
2022/12/15 16:28:45;;;;;;;;;;;22.30;31.80;;;;;;5085258;28;19979;-67
2022/12/15 16:31:14;;;;;;;;;;;22.00;32.20;;;;;;5088126;28;19952;-73
2022/12/15 16:33:40;;;;;;;;;;;21.90;32.60;;;;;;5087353;28;20407;-71
2022/12/15 16:36:13;;;;;;;;;;;21.70;32.90;;;;;;5086281;28;19921;-73
2022/12/15 16:38:39;;;;;;;;;;;21.40;33.20;;;;;;5097254;28;19935;-71
2022/12/15 16:41:06;;;;;;;;;;;21.30;33.50;;;;;;5108281;28;19920;-68
2022/12/15 16:43:32;;;;;;;;;;;21.10;33.90;;;;;;5090110;28;19920;-68
2022/12/15 16:45:57;;;;;;;;;;;20.90;34.20;;;;;;5108362;28;19966;-71
2022/12/15 16:48:23;;;;;;;;;;;20.70;34.60;;;;;;5089772;28;20355;-69
2022/12/15 16:50:50;;;;;;;;;;;20.50;34.80;;;;;;5078863;28;20139;-70
2022/12/15 16:53:17;;;;;;;;;;;20.40;35.00;;;;;;5076512;28;19920;-69
2022/12/15 16:55:43;;;;;;;;;;;20.30;35.20;;;;;;5076554;28;19927;-74
2022/12/15 16:58:10;;;;;;;;;;;20.20;35.50;;;;;;5093186;28;19931;-71
2022/12/15 17:00:36;;;;;;;;;;;20.10;35.70;;;;;;5094164;28;19989;-71
2022/12/15 17:03:02;;;;;;;;;;;19.90;35.90;;;;;;5074637;28;20364;-69
2022/12/15 17:05:30;;;;;;;;;;;19.90;36.10;;;;;;5094132;28;19996;-66
2022/12/15 17:07:56;;;;;;;;;;;19.80;36.30;;;;;;5076918;28;19920;-70
2022/12/15 17:10:23;;;;;;;;;;;19.70;36.40;;;;;;5076034;28;20383;-70
2022/12/15 17:12:50;;;;;;;;;;;19.70;36.40;;;;;;5094022;28;19938;-70
2022/12/15 17:15:17;;;;;;;;;;;19.60;36.10;;;;;;5075243;28;19935;-70
2022/12/15 17:17:42;;;;;;;;;;;19.80;36.00;;;;;;5093116;28;19999;-63
2022/12/15 17:20:13;;;;;;;;;;;19.90;35.50;;;;;;5075435;28;20014;-67
2022/12/15 17:22:39;;;;;;;;;;;20.20;34.90;;;;;;5092613;28;19924;-72
2022/12/15 17:25:04;;;;;;;;;;;20.50;34.30;;;;;;5075072;28;19947;-71
2022/12/15 17:27:30;;;;;;;;;;;20.80;33.80;;;;;;5074583;28;19927;-72
2022/12/15 17:29:57;;;;;;;;;;;21.10;33.30;;;;;;5076173;28;20062;-72
2022/12/15 17:32:22;;;;;;;;;;;21.40;32.70;;;;;;5094470;28;19920;-72
2022/12/15 17:34:48;;;;;;;;;;;21.60;32.30;;;;;;5094312;28;20391;-72
2022/12/15 17:37:14;;;;;;;;;;;21.80;31.80;;;;;;5094234;28;20049;-71
2022/12/15 17:39:43;;;;;;;;;;;21.90;31.50;;;;;;5093841;28;19989;-72
2022/12/15 17:42:18;;;;;;;;;;;22.00;31.30;;;;;;5094082;28;19931;-71
2022/12/15 17:44:46;;;;;;;;;;;22.00;31.10;;;;;;5075569;28;19934;-72
2022/12/15 17:47:12;;;;;;;;;;;22.00;31.00;;;;;;5075669;28;19920;-72
2022/12/15 17:49:38;;;;;;;;;;;21.90;30.90;;;;;;5075620;28;19920;-71
2022/12/15 17:52:23;;;;;;;;;;;21.90;31.10;;;;;;5075636;28;19943;-67
2022/12/15 17:54:50;;;;;;;;;;;21.70;31.10;;;;;;5074994;28;19931;-71
2022/12/15 17:57:15;;;;;;;;;;;21.50;31.30;;;;;;5093478;28;20265;-72
2022/12/15 17:59:41;;;;;;;;;;;21.30;31.40;;;;;;5074624;28;19930;-66
2022/12/15 18:02:09;;;;;;;;;;;21.20;31.60;;;;;;5092318;28;20015;-72
2022/12/15 18:04:35;;;;;;;;;;;21.00;31.80;;;;;;5093337;28;20370;-72
2022/12/15 18:07:00;;;;;;;;;;;20.90;32.00;;;;;;5075221;28;20035;-72
2022/12/15 18:09:26;;;;;;;;;;;20.70;32.10;;;;;;5093214;28;19959;-72
2022/12/15 18:11:52;;;;;;;;;;;20.60;32.30;;;;;;5074878;28;19920;-72
2022/12/15 18:14:18;;;;;;;;;;;20.50;32.40;;;;;;5075175;28;20026;-72
2022/12/15 18:16:44;;;;;;;;;;;20.40;32.50;;;;;;5092961;28;19920;-72
2022/12/15 18:19:10;;;;;;;;;;;20.30;32.50;;;;;;5074820;28;19935;-71
2022/12/15 18:21:35;;;;;;;;;;;20.40;32.60;;;;;;5074769;28;20375;-67
2022/12/15 18:24:01;;;;;;;;;;;20.40;32.40;;;;;;5075096;28;19920;-66
2022/12/15 18:26:27;;;;;;;;;;;20.60;32.30;;;;;;5074612;28;20276;-72
2022/12/15 18:28:52;;;;;;;;;;;20.60;31.90;;;;;;5074829;28;19926;-71
2022/12/15 18:31:24;;;;;;;;;;;20.90;31.80;;;;;;5074999;28;19971;-72